AirNav   Air Wisconsin pilot careers
 
 1395 users online  

94C Gilbert Field Airport
Rio, Wisconsin, USA

GOING TO RIO?


FAA INFORMATION EFFECTIVE 29 MARCH 2018

Location

FAA Identifier: 94C
Lat/Long: 43-26-59.9470N / 089-15-00.4170W
43-26.999117N / 089-15.006950W
43.4499853 / -89.2501158
(estimated)
Elevation: 925 ft. / 281.9 m (surveyed)
Variation: 00W (1985)
From city: 1 mile W of RIO, WI
Time zone: UTC -5 (UTC -6 during Standard Time)
Zip code: 53960

Airport Operations

Airport use: Open to the public
Activation date: 08/1963
Control tower: no
ARTCC: CHICAGO CENTER
FSS: GREEN BAY FLIGHT SERVICE STATION
NOTAMs facility: GRB (NOTAM-D service available)
Attendance: UNATNDD
Pattern altitude: 1925 ft. MSL
Wind indicator: yes
Segmented circle: no

Airport Communications

CTAF: 122.9
WX ASOS at MSN (19 nm S): PHONE 608-249-0615

Nearby radio navigation aids

VOR radial/distance  VOR name  Freq  Var
MSNr009/18.7MADISON VORTAC108.6003E
DLLr102/23.2DELLS VORTAC117.0003E
LNRr076/39.6LONE ROCK VOR/DME112.8000E

 
NDB name  Hdg/Dist  Freq  Var  ID
JUNEAU274/23.934401WUNU ..- -. ..-
ROCK RIVER307/28.337101WRYV .-. -.-- ...-

Airport Services

Parking: tiedowns
Airframe service: NONE
Powerplant service: NONE
Bottled oxygen: NONE
Bulk oxygen: NONE

Runway Information

Runway 9/27

Dimensions: 1092 x 65 ft. / 333 x 20 m
Surface: turf, in fair condition
Runway edge markings: 09/27 THLDS MKD WITH ORANGE CONES.
RUNWAY 9  RUNWAY 27
Latitude: 43-27.099000N43-27.099000N
Longitude: 089-15.389833W089-15.107333W
Elevation: 940.0 ft.940.0 ft.
Traffic pattern: leftleft
Runway end identifier lights: nono
Obstructions: 64 ft. trees, 900 ft. from runway, 110 ft. left of centerline, 14:1 slope to clear67 ft. trees, 950 ft. from runway, 150 ft. left of centerline, 14:1 slope to clear

Airport Ownership and Management from official FAA records

Ownership: Privately-owned
Owner: RIO AERO CLUB, INC
5019 HWY 116
RIO, WI 53960
Phone 920-992-5290
Manager: DON BRINKMEIER
2775 LA RUE LN
SUN PRAIRIE, WI 53590
Phone (608) 220-9386

Airport Operational Statistics

Aircraft based on the field: 10
Single engine airplanes: 8
Ultralights: 2
    
Aircraft operations: avg 111/week *
65% local general aviation
34% transient general aviation
<1% military
* for 12-month period ending 15 June 2017

Additional Remarks

CONFIRM WINTER RY CONDITIONS & SNOW REMOVAL CALL 608-220-9386.

Instrument Procedures

There are no published instrument procedures at 94C.

Some nearby airports with instrument procedures:

C47 - Portage Municipal Airport (12 nm NW)
KMSN - Dane County Regional Airport-Truax Field (19 nm S)
87Y - Blackhawk Airfield (21 nm S)
KDLL - Baraboo-Wisconsin Dells Regional Airport (23 nm W)
C29 - Middleton Municipal Airport - Morey Field (24 nm SW)
 
Loc | Ops | Rwys | IFR | FBO | Links
Com | Nav | Svcs | Stats | Notes

AirNav Hotels Sweepstakes
 
Area around 94C (Gilbert Field Airport)
 
Road maps at: MapQuest Bing Google
 
Aerial photo
WARNING: Photo may not be current or correct
Aerial photo of 94C (Gilbert Field Airport)
Do you have a better or more recent aerial photo of Gilbert Field Airport that you would like to share? If so, please send us your photo.

 
Sectional chart

 
Airport distance calculator
Flying to Gilbert Field Airport? Find the distance to fly.

From to 94C

Sunrise and sunset
Times for 25-Apr-2018
 Local
(UTC-5)
 Zulu
(UTC)
Morning civil twilight05:2910:29
Sunrise06:0011:00
Sunset19:5000:50
Evening civil twilight20:2101:21

Current date and time
Zulu (UTC)  25-Apr-2018 21:24:06
Local (UTC-5)  25-Apr-2018 16:24:06
 
METAR
KMSN 
19nm S 
252053Z 36005KT 10SM FEW250 16/M01 A3003 RMK AO2 SLP173 T01561011 58023
KDLL 
23nm W 
252055Z AUTO 05007KT 10SM CLR 14/M05 A3004 RMK AO2 T01431052
KC29 
24nm SW 
252055Z AUTO 01005KT 10SM CLR 16/M04 A3004 RMK AO1 T01571038
KUNU 
24nm E 
252055Z AUTO 36003KT 10SM CLR 12/M01 A3006 RMK AO2 T01221013
KRYV 
29nm SE 
252055Z AUTO 34009KT 10SM CLR 14/M02 A3004 RMK AO2 T01371016
KC35 
32nm W 
252055Z AUTO 03004KT 10SM CLR 14/M02 A3004 RMK AO2 T01401016
KY50 
36nm N 
252056Z AUTO VRB06KT 10SM CLR 13/M03 A3006 RMK AO2 SLP210 T01331033 58021 $
KFLD 
38nm NE 
252053Z AUTO 04010KT 10SM CLR 11/00 A3007 RMK AO2 SLP186 T01060000 58020
TAF
KMSN 
19nm S 
251729Z 2518/2618 01008G16KT P6SM SKC FM260000 02006KT P6SM SKC FM260200 VRB03KT P6SM SKC FM261300 22005KT P6SM SCT250 FM261500 24008KT P6SM SCT250
NOTAMs
Click for the latest NOTAMs
NOTAMs are issued by the DoD/FAA and will open in a separate window not controlled by AirNav.

 

 
 

Would you like to see your business listed on this page?

 If your business provides an interesting product or service to pilots, flight crews, aircraft, or users of the Gilbert Field Airport, you should consider listing it here.  To start the listing process, click on the button below
 
Add a business
 

Other Pages about Gilbert Field Airport

Page from the Wisconsin airport directory (PDF)
 
Update a link
 
Copyright © AirNav, LLC. All rights reserved. Privacy Policy  Contact